This is the latest recevied weather packets stored in our database for station/object KD8PH. If no packets are shown the sender has not sent any weather packets the latest 10 day(s).
| Time | Temp. | Humidity | Pressure | Rain* | Wind** | Luminosity | Snow |
|---|---|---|---|---|---|---|---|
| 1777856135 | 16.11° C | 65% | 1015.7 hPa | 0 mm | - | - | - |
| 1777855541 | 16.11° C | 63% | 1015.7 hPa | 0 mm | - | - | - |
| 1777854938 | 17.22° C | 61% | 1015.6 hPa | 0 mm | - | - | - |
| 1777854334 | 17.78° C | 57% | 1015.6 hPa | 0 mm | - | - | - |
| 1777853748 | 18.33° C | 53% | 1015.5 hPa | 0 mm | - | - | - |
| 1777853142 | 18.89° C | 50% | 1015.6 hPa | 0 mm | - | - | - |
| 1777852541 | 19.44° C | 48% | 1015.6 hPa | 0 mm | - | - | - |
| 1777851945 | 20° C | 44% | 1015.6 hPa | 0 mm | - | - | - |
| 1777851340 | 20° C | 44% | 1015.6 hPa | 0 mm | - | - | - |
| 1777850744 | 20° C | 43% | 1015.6 hPa | 0 mm | - | - | - |
| 1777850138 | 20° C | 43% | 1015.6 hPa | 0 mm | - | - | - |
| 1777849533 | 19.44° C | 43% | 1015.6 hPa | 0 mm | - | - | - |
| 1777848938 | 19.44° C | 42% | 1015.7 hPa | 0 mm | - | - | - |
| 1777848341 | 20° C | 46% | 1015.8 hPa | 0 mm | - | - | - |
| 1777847743 | 20.56° C | 40% | 1015.7 hPa | 0 mm | - | - | - |
| 1777847139 | 20.56° C | 42% | 1015.9 hPa | 0 mm | - | - | - |
| 1777846535 | 20.56° C | 40% | 1016 hPa | 0 mm | - | - | - |
| 1777845937 | 20.56° C | 41% | 1016 hPa | 0 mm | - | - | - |
| 1777845335 | 20.56° C | 39% | 1016.1 hPa | 0 mm | - | - | - |
| 1777844737 | 20.56° C | 40% | 1016.2 hPa | 0 mm | - | - | - |
| 1777844141 | 20° C | 42% | 1016.2 hPa | 0 mm | - | - | - |
| 1777843537 | 20.56° C | 39% | 1016.4 hPa | 0 mm | - | - | - |
| 1777842935 | 20.56° C | 41% | 1016.4 hPa | 0 mm | - | - | - |
| 1777842343 | 20° C | 41% | 1016.6 hPa | 0 mm | - | - | - |
| 1777841741 | 20° C | 40% | 1016.7 hPa | 0 mm | - | - | - |
* Rain latest hour (hover to see other rain measurements)
** Current wind speed in m/s (hover to see current wind gust speed)